Time;durP1;ratioP1;P1;durP2;ratioP2;P2;SDS_P1;SDS_P2;PMS_P1;PMS_P2;Temp;Humidity;BMP_temperature;BMP_pressure;BME280_temperature;BME280_humidity;BME280_pressure;Samples;Min_cycle;Max_cycle;Signal;HPM_P1;HPM_P2
2022/10/15 00:01:09;;;;;;;;;;;;;;;21.33;66.54;97280.67;602248;235;65091;-79
2022/10/15 00:03:37;;;;;;;;;;;;;;;21.33;66.11;97274.53;602364;235;68824;-79
2022/10/15 00:06:06;;;;;;;;;;;;;;;21.33;66.45;97283.34;602316;235;68552;-79
2022/10/15 00:08:34;;;;;;;;;;;;;;;21.33;65.80;97279.87;602233;235;63759;-79
2022/10/15 00:11:03;;;;;;;;;;;;;;;21.32;66.46;97279.08;602342;235;66335;-79
2022/10/15 00:13:31;;;;;;;;;;;;;;;21.32;66.72;97270.27;602349;235;68746;-79
2022/10/15 00:15:59;;;;;;;;;;;;;;;21.32;65.79;97273.73;602313;235;64987;-79
2022/10/15 00:18:27;;;;;;;;;;;;;;;21.31;66.54;97272.14;602344;235;68821;-79
2022/10/15 00:20:55;;;;;;;;;;;;;;;21.31;65.98;97273.98;602379;235;66671;-78
2022/10/15 00:23:22;;;;;;;;;;;;;;;21.30;66.78;97270.52;602340;235;62852;-69
2022/10/15 00:25:50;;;;;;;;;;;;;;;21.31;66.28;97277.48;602337;235;66465;-79
2022/10/15 00:28:17;;;;;;;;;;;;;;;21.31;66.10;97272.14;602352;235;67363;-79
2022/10/15 00:30:45;;;;;;;;;;;;;;;21.31;65.96;97265.97;602358;235;64895;-79
2022/10/15 00:33:14;;;;;;;;;;;;;;;21.31;66.94;97272.14;602344;235;69184;-69
2022/10/15 00:35:41;;;;;;;;;;;;;;;21.31;66.92;97274.81;602351;235;66478;-69
2022/10/15 00:38:09;;;;;;;;;;;;;;;21.30;67.05;97275.86;602367;235;64956;-69
2022/10/15 00:40:36;;;;;;;;;;;;;;;21.31;66.44;97272.14;602320;235;68786;-69
2022/10/15 00:43:05;;;;;;;;;;;;;;;21.30;66.78;97270.52;602421;235;66432;-79
2022/10/15 00:45:33;;;;;;;;;;;;;;;21.29;66.04;97274.27;602475;235;66078;-79
2022/10/15 00:48:00;;;;;;;;;;;;;;;21.28;66.52;97275.34;602421;235;68740;-78
2022/10/15 00:50:28;;;;;;;;;;;;;;;21.29;67.16;97274.27;602493;235;69895;-79
2022/10/15 00:53:09;;;;;;;;;;;;;;;21.28;66.52;97284.16;602383;235;62796;-78
2022/10/15 00:55:38;;;;;;;;;;;;;;;21.28;66.49;97273.47;602424;235;66461;-79
2022/10/15 00:58:07;;;;;;;;;;;;;;;21.28;66.77;97278.02;602386;235;68759;-79
2022/10/15 01:00:35;;;;;;;;;;;;;;;21.28;66.86;97276.14;602442;235;64899;-70
2022/10/15 01:03:03;;;;;;;;;;;;;;;21.28;66.51;97276.14;602384;235;68842;-70
2022/10/15 01:05:31;;;;;;;;;;;;;;;21.28;66.94;97270.00;602382;235;68830;-69
2022/10/15 01:07:59;;;;;;;;;;;;;;;21.28;67.27;97278.02;602383;235;62910;-70
2022/10/15 01:10:28;;;;;;;;;;;;;;;21.27;66.45;97277.19;602422;235;68708;-69
2022/10/15 01:13:13;;;;;;;;;;;;;;;21.27;66.87;97269.17;602348;235;68853;-69
2022/10/15 01:15:45;;;;;;;;;;;;;;;21.28;67.03;97272.67;602455;235;65631;-70
2022/10/15 01:18:17;;;;;;;;;;;;;;;21.27;66.61;97276.39;602349;235;68679;-70
2022/10/15 01:20:47;;;;;;;;;;;;;;;21.27;67.12;97274.52;602329;235;66521;-70
2022/10/15 01:23:17;;;;;;;;;;;;;;;21.26;66.66;97269.45;596970;235;65814;-69
2022/10/15 01:26:03;;;;;;;;;;;;;;;21.25;67.63;97274.00;602433;235;66118;-70
2022/10/15 01:28:44;;;;;;;;;;;;;;;21.25;67.14;97275.84;602391;235;68590;-78
2022/10/15 01:31:30;;;;;;;;;;;;;;;21.25;67.58;97281.20;602412;235;65143;-78
2022/10/15 01:34:08;;;;;;;;;;;;;;;21.25;67.96;97275.84;602447;235;66691;-79
2022/10/15 01:36:40;;;;;;;;;;;;;;;21.24;67.43;97276.93;602184;235;66527;-78
2022/10/15 01:39:10;;;;;;;;;;;;;;;21.23;67.00;97273.46;602224;235;65205;-79
2022/10/15 01:41:45;;;;;;;;;;;;;;;21.24;68.14;97279.60;604786;234;66505;-79
2022/10/15 01:44:18;;;;;;;;;;;;;;;21.23;67.06;97280.69;602364;234;66136;-79
2022/10/15 01:46:58;;;;;;;;;;;;;;;21.23;67.22;97275.34;601392;235;48140;-79
2022/10/15 01:49:27;;;;;;;;;;;;;;;21.22;66.65;97269.16;602397;235;66086;-79
2022/10/15 01:51:56;;;;;;;;;;;;;;;21.22;67.70;97279.86;602291;235;68664;-79
2022/10/15 01:54:24;;;;;;;;;;;;;;;21.22;66.12;97285.20;602313;235;65048;-79
2022/10/15 01:56:53;;;;;;;;;;;;;;;21.23;66.80;97286.03;602305;235;66048;-79
2022/10/15 01:59:23;;;;;;;;;;;;;;;21.22;67.33;97282.53;602339;235;69015;-79
2022/10/15 02:01:50;;;;;;;;;;;;;;;21.22;67.26;97282.53;602374;235;62839;-79
2022/10/15 02:04:20;;;;;;;;;;;;;;;21.22;67.56;97285.20;602383;235;68696;-80
2022/10/15 02:06:48;;;;;;;;;;;;;;;21.22;67.84;97289.75;602363;235;66685;-79
2022/10/15 02:09:20;;;;;;;;;;;;;;;21.22;67.24;97284.41;602348;235;65655;-79
2022/10/15 02:11:52;;;;;;;;;;;;;;;21.22;67.56;97293.22;602462;232;66484;-80
2022/10/15 02:14:22;;;;;;;;;;;;;;;21.23;68.21;97291.38;602461;232;65327;-81
2022/10/15 02:16:51;;;;;;;;;;;;;;;21.21;68.15;97288.95;602459;232;65912;-80
2022/10/15 02:19:20;;;;;;;;;;;;;;;21.21;67.67;97285.48;602421;232;68696;-80
2022/10/15 02:21:49;;;;;;;;;;;;;;;21.21;67.90;97283.61;602941;232;69112;-80
2022/10/15 02:24:22;;;;;;;;;;;;;;;21.20;68.04;97270.53;602299;232;64920;-80
2022/10/15 02:26:51;;;;;;;;;;;;;;;21.20;67.62;97281.22;602334;232;66495;-80
2022/10/15 02:29:20;;;;;;;;;;;;;;;21.20;67.87;97278.55;602371;235;66497;-80
2022/10/15 02:31:49;;;;;;;;;;;;;;;21.20;67.72;97278.55;602329;235;64905;-79
2022/10/15 02:34:20;;;;;;;;;;;;;;;21.21;67.79;97282.81;602321;235;68797;-80
2022/10/15 02:36:49;;;;;;;;;;;;;;;21.20;67.61;97287.36;602334;235;68560;-80
2022/10/15 02:39:18;;;;;;;;;;;;;;;21.20;67.85;97287.36;602297;234;65157;-79
2022/10/15 02:41:47;;;;;;;;;;;;;;;21.20;68.57;97286.56;602861;235;66129;-80
2022/10/15 02:44:14;;;;;;;;;;;;;;;21.20;68.23;97291.91;602345;235;68582;-80
2022/10/15 02:46:42;;;;;;;;;;;;;;;21.20;67.70;97299.92;602312;235;64891;-80
2022/10/15 02:49:10;;;;;;;;;;;;;;;21.20;67.87;97297.25;602362;235;67134;-78
2022/10/15 02:51:37;;;;;;;;;;;;;;;21.19;67.33;97299.10;602326;235;68552;-80
2022/10/15 02:54:07;;;;;;;;;;;;;;;21.19;67.89;97292.95;602238;235;42631;-80
2022/10/15 02:56:37;;;;;;;;;;;;;;;21.20;68.01;97294.58;602415;235;66282;-80
2022/10/15 02:59:05;;;;;;;;;;;;;;;21.19;68.41;97307.12;602254;235;66437;-80
2022/10/15 03:01:33;;;;;;;;;;;;;;;21.19;68.86;97303.65;602349;235;62333;-80
2022/10/15 03:04:01;;;;;;;;;;;;;;;21.18;68.12;97310.07;602372;235;68901;-80
2022/10/15 03:06:30;;;;;;;;;;;;;;;21.18;68.69;97304.73;602342;235;69098;-80
2022/10/15 03:08:58;;;;;;;;;;;;;;;21.19;68.62;97304.45;602415;235;62383;-80
2022/10/15 03:11:26;;;;;;;;;;;;;;;21.17;67.98;97305.78;602288;235;68625;-80
2022/10/15 03:13:53;;;;;;;;;;;;;;;21.17;67.82;97303.10;602326;235;69024;-80
2022/10/15 03:16:21;;;;;;;;;;;;;;;21.18;68.20;97299.38;602381;235;64923;-80
2022/10/15 03:18:48;;;;;;;;;;;;;;;21.17;68.54;97311.12;602353;235;68664;-81
2022/10/15 03:21:17;;;;;;;;;;;;;;;21.16;67.79;97307.66;597130;235;69060;-80
2022/10/15 03:23:45;;;;;;;;;;;;;;;21.17;69.00;97313.80;602366;235;64918;-80
2022/10/15 03:26:20;;;;;;;;;;;;;;;21.18;68.08;97315.41;602381;235;45960;-79
2022/10/15 03:28:49;;;;;;;;;;;;;;;21.17;67.37;97308.45;590855;237;69256;-78
2022/10/15 03:31:18;;;;;;;;;;;;;;;21.16;67.88;97312.20;598822;235;43961;-79
2022/10/15 03:33:46;;;;;;;;;;;;;;;21.16;68.17;97323.69;602392;235;68940;-79
2022/10/15 03:36:15;;;;;;;;;;;;;;;21.16;67.53;97317.55;602380;235;47362;-80
2022/10/15 03:38:45;;;;;;;;;;;;;;;21.16;68.53;97321.02;602453;235;46092;-80
2022/10/15 03:41:13;;;;;;;;;;;;;;;21.15;68.46;97315.95;602352;235;65797;-80
2022/10/15 03:43:41;;;;;;;;;;;;;;;21.15;68.71;97324.77;602373;235;68793;-79
2022/10/15 03:46:09;;;;;;;;;;;;;;;21.15;68.76;97324.77;602441;235;62792;-79
2022/10/15 03:48:38;;;;;;;;;;;;;;;21.14;68.36;97317.80;602330;235;45429;-79
2022/10/15 03:51:06;;;;;;;;;;;;;;;21.15;69.10;97318.63;602334;235;68567;-79
2022/10/15 03:53:34;;;;;;;;;;;;;;;21.13;68.57;97321.55;602362;235;65080;-79
2022/10/15 03:56:05;;;;;;;;;;;;;;;21.14;69.10;97320.47;602332;235;65748;-79
2022/10/15 03:58:33;;;;;;;;;;;;;;;21.15;68.54;97323.97;602328;235;68652;-70
2022/10/15 04:01:02;;;;;;;;;;;;;;;21.13;68.22;97321.55;602403;235;42473;-69
2022/10/15 04:03:30;;;;;;;;;;;;;;;21.14;68.73;97325.02;602333;235;66553;-69
2022/10/15 04:05:58;;;;;;;;;;;;;;;21.14;69.57;97319.67;602333;235;66204;-79
2022/10/15 04:08:25;;;;;;;;;;;;;;;21.13;68.18;97324.22;602347;235;64899;-79
2022/10/15 04:10:53;;;;;;;;;;;;;;;21.14;68.99;97319.67;602337;235;68779;-79
2022/10/15 04:13:20;;;;;;;;;;;;;;;21.13;69.02;97323.42;602333;235;68508;-79
2022/10/15 04:15:48;;;;;;;;;;;;;;;21.13;68.49;97323.42;602381;235;62791;-79
2022/10/15 04:18:15;;;;;;;;;;;;;;;21.13;67.91;97328.77;599184;235;68686;-79
2022/10/15 04:20:44;;;;;;;;;;;;;;;21.13;68.00;97321.55;602354;235;66065;-79
2022/10/15 04:23:13;;;;;;;;;;;;;;;21.13;68.41;97320.75;602362;235;46935;-79
2022/10/15 04:25:44;;;;;;;;;;;;;;;21.12;68.21;97322.62;602305;235;46122;-79
2022/10/15 04:28:12;;;;;;;;;;;;;;;21.13;68.89;97326.09;602390;235;68551;-79
2022/10/15 04:30:40;;;;;;;;;;;;;;;21.11;68.29;97322.88;602326;235;62173;-79
2022/10/15 04:33:09;;;;;;;;;;;;;;;21.11;68.90;97320.20;602354;235;68895;-79
2022/10/15 04:35:36;;;;;;;;;;;;;;;21.11;68.23;97320.20;602344;235;66521;-79
2022/10/15 04:38:09;;;;;;;;;;;;;;;21.11;68.75;97330.89;602180;235;46583;-79
2022/10/15 04:41:00;;;;;;;;;;;;;;;21.11;68.93;97331.69;603800;234;48120;-79
2022/10/15 04:43:29;;;;;;;;;;;;;;;21.10;68.77;97330.09;602241;235;49428;-79
2022/10/15 04:45:59;;;;;;;;;;;;;;;21.10;69.37;97330.09;602395;234;41820;-79
2022/10/15 04:48:28;;;;;;;;;;;;;;;21.09;69.59;97328.50;602317;235;65786;-69
2022/10/15 04:50:56;;;;;;;;;;;;;;;21.09;68.96;97338.36;602307;235;68669;-70
2022/10/15 04:53:23;;;;;;;;;;;;;;;21.08;68.42;97342.91;602303;235;65048;-70
2022/10/15 04:55:51;;;;;;;;;;;;;;;21.09;68.71;97346.38;602339;235;65694;-70
2022/10/15 04:58:19;;;;;;;;;;;;;;;21.09;68.43;97343.70;602327;235;68410;-70
2022/10/15 05:00:49;;;;;;;;;;;;;;;21.09;68.92;97341.03;602373;235;46327;-69
2022/10/15 05:03:21;;;;;;;;;;;;;;;21.09;69.15;97343.70;601553;235;48176;-69
2022/10/15 05:05:50;;;;;;;;;;;;;;;21.08;69.27;97345.58;602071;235;46621;-69
2022/10/15 05:08:18;;;;;;;;;;;;;;;21.09;69.07;97351.72;601711;235;62430;-69
2022/10/15 05:11:08;;;;;;;;;;;;;;;21.09;68.88;97349.05;600628;236;50440;-69
2022/10/15 05:13:37;;;;;;;;;;;;;;;21.08;68.55;97342.91;599271;236;49975;-69
2022/10/15 05:16:13;;;;;;;;;;;;;;;21.06;68.43;97353.88;601036;236;65210;-69
2022/10/15 05:18:41;;;;;;;;;;;;;;;21.08;69.26;97355.47;601011;236;68685;-69
2022/10/15 05:21:09;;;;;;;;;;;;;;;21.06;69.02;97361.89;601072;236;68538;-69
2022/10/15 05:23:39;;;;;;;;;;;;;;;21.06;69.32;97353.05;601055;236;65113;-78
2022/10/15 05:26:10;;;;;;;;;;;;;;;21.06;69.21;97361.89;600819;236;48018;-79
2022/10/15 05:28:37;;;;;;;;;;;;;;;21.06;68.88;97361.89;601090;236;68291;-80
2022/10/15 05:31:07;;;;;;;;;;;;;;;21.06;68.91;97367.23;601040;236;65784;-79
2022/10/15 05:33:35;;;;;;;;;;;;;;;21.06;69.36;97375.25;601099;236;68336;-79
2022/10/15 05:36:11;;;;;;;;;;;;;;;21.08;68.59;97382.20;601079;236;68446;-79
2022/10/15 05:38:39;;;;;;;;;;;;;;;21.06;69.67;97377.92;601081;236;65079;-79
2022/10/15 05:41:06;;;;;;;;;;;;;;;21.06;69.59;97377.10;597759;235;68578;-79
2022/10/15 05:43:34;;;;;;;;;;;;;;;21.05;70.29;97380.84;596750;237;66113;-79
2022/10/15 05:46:02;;;;;;;;;;;;;;;21.05;69.39;97380.84;594563;237;64986;-79
2022/10/15 05:48:29;;;;;;;;;;;;;;;21.05;69.91;97381.64;593755;238;68365;-79
2022/10/15 05:51:01;;;;;;;;;;;;;;;21.04;68.64;97390.73;594336;238;66191;-79
2022/10/15 05:53:30;;;;;;;;;;;;;;;21.04;69.05;97385.39;593947;238;45433;-79
2022/10/15 05:56:00;;;;;;;;;;;;;;;21.05;69.67;97388.86;594212;237;46751;-79
2022/10/15 05:58:29;;;;;;;;;;;;;;;21.04;68.80;97388.06;592029;238;46779;-79
2022/10/15 06:00:57;;;;;;;;;;;;;;;21.04;68.88;97387.27;592174;238;66095;-79
2022/10/15 06:03:25;;;;;;;;;;;;;;;21.04;69.22;97390.73;594509;238;68355;-80
2022/10/15 06:05:54;;;;;;;;;;;;;;;21.04;70.87;97393.41;593559;238;68953;-80
2022/10/15 06:08:22;;;;;;;;;;;;;;;21.04;68.92;97393.41;592032;239;64950;-80
2022/10/15 06:10:49;;;;;;;;;;;;;;;21.03;69.50;97394.48;593141;238;68435;-80
2022/10/15 06:13:17;;;;;;;;;;;;;;;21.05;69.68;97404.90;593967;238;68518;-80
2022/10/15 06:15:46;;;;;;;;;;;;;;;21.03;69.30;97404.34;591998;239;62413;-80
2022/10/15 06:18:19;;;;;;;;;;;;;;;21.02;68.46;97406.22;592037;239;68411;-80
2022/10/15 06:20:43;;;;;;;;;;;;;;;21.03;69.08;97409.69;591927;239;66444;-80
2022/10/15 06:23:12;;;;;;;;;;;;;;;21.03;68.85;97409.69;592057;239;64915;-80
2022/10/15 06:25:39;;;;;;;;;;;;;;;21.02;69.44;97411.56;592046;239;65990;-80
2022/10/15 06:28:08;;;;;;;;;;;;;;;21.04;69.21;97413.98;594263;238;68400;-70
2022/10/15 06:30:40;;;;;;;;;;;;;;;21.04;68.40;97424.67;592728;238;46307;-70
2022/10/15 06:33:08;;;;;;;;;;;;;;;21.04;69.87;97425.48;594287;238;68799;-70
2022/10/15 06:35:36;;;;;;;;;;;;;;;21.05;69.68;97428.95;592799;238;68322;-70
2022/10/15 06:38:04;;;;;;;;;;;;;;;21.04;70.70;97422.80;592241;238;62762;-70
2022/10/15 06:40:31;;;;;;;;;;;;;;;21.05;70.25;97420.93;594252;235;68605;-69
2022/10/15 06:43:06;;;;;;;;;;;;;;;21.05;69.47;97428.95;594221;238;68267;-69
2022/10/15 06:45:41;;;;;;;;;;;;;;;21.04;68.78;97428.15;592036;238;66097;-70
2022/10/15 06:48:10;;;;;;;;;;;;;;;21.04;68.85;97433.50;595245;237;45828;-70
2022/10/15 06:50:38;;;;;;;;;;;;;;;21.05;70.92;97434.30;596115;238;68526;-69
2022/10/15 06:53:06;;;;;;;;;;;;;;;21.05;71.43;97442.31;596089;238;62740;-70
2022/10/15 06:55:33;;;;;;;;;;;;;;;21.03;69.78;97439.91;596061;238;68383;-69
2022/10/15 06:58:01;;;;;;;;;;;;;;;21.05;71.09;97445.78;596116;238;69253;-70
2022/10/15 07:00:29;;;;;;;;;;;;;;;21.04;69.74;97438.04;595266;238;65101;-70
2022/10/15 07:02:57;;;;;;;;;;;;;;;21.03;69.83;97439.91;595828;238;66158;-70
2022/10/15 07:05:29;;;;;;;;;;;;;;;21.04;70.21;97444.19;596096;237;47014;-70
2022/10/15 07:08:00;;;;;;;;;;;;;;;21.04;70.69;97441.51;596166;237;46369;-70
2022/10/15 07:10:32;;;;;;;;;;;;;;;21.04;69.60;97438.84;596066;236;68346;-70
2022/10/15 07:13:02;;;;;;;;;;;;;;;21.04;70.79;97430.82;595062;237;49471;-71
2022/10/15 07:15:29;;;;;;;;;;;;;;;21.05;70.48;97434.30;595258;238;65095;-70
2022/10/15 07:18:06;;;;;;;;;;;;;;;21.05;70.28;97442.31;594766;238;67048;-70
2022/10/15 07:20:32;;;;;;;;;;;;;;;21.03;70.61;97439.91;596074;237;70751;-70
2022/10/15 07:23:01;;;;;;;;;;;;;;;21.05;70.56;97445.78;596099;238;65661;-71
2022/10/15 07:25:39;;;;;;;;;;;;;;;21.04;69.67;97433.50;586807;238;69781;-70
2022/10/15 07:28:03;;;;;;;;;;;;;;;21.05;70.76;97440.44;595988;238;68352;-71
2022/10/15 07:30:31;;;;;;;;;;;;;;;21.05;70.68;97448.45;595588;238;64966;-71
2022/10/15 07:32:59;;;;;;;;;;;;;;;21.04;70.62;97446.86;595212;238;68360;-70
2022/10/15 07:35:27;;;;;;;;;;;;;;;21.05;71.34;97455.67;596120;238;65846;-71
2022/10/15 07:38:03;;;;;;;;;;;;;;;21.04;70.27;97454.07;595390;237;53523;-70
2022/10/15 07:40:28;;;;;;;;;;;;;;;21.04;70.02;97454.07;596331;235;68906;-70
2022/10/15 07:42:56;;;;;;;;;;;;;;;21.04;70.69;97457.55;599645;235;65726;-69
2022/10/15 07:45:26;;;;;;;;;;;;;;;21.05;70.48;97461.02;602246;235;63181;-70
2022/10/15 07:47:56;;;;;;;;;;;;;;;21.04;70.49;97462.89;602318;235;68386;-70
2022/10/15 07:50:25;;;;;;;;;;;;;;;21.05;70.38;97461.02;599793;235;68021;-70
2022/10/15 07:53:01;;;;;;;;;;;;;;;21.04;69.85;97462.09;602002;235;44892;-70
2022/10/15 07:55:35;;;;;;;;;;;;;;;21.04;70.11;97464.77;602513;235;66004;-70
2022/10/15 07:58:04;;;;;;;;;;;;;;;21.04;70.30;97464.77;599497;235;68075;-70
2022/10/15 08:00:35;;;;;;;;;;;;;;;21.03;70.48;97463.96;602259;235;64913;-69
2022/10/15 08:03:06;;;;;;;;;;;;;;;21.03;71.00;97463.96;601625;235;68291;-70
2022/10/15 08:05:35;;;;;;;;;;;;;;;21.03;69.85;97471.15;600309;235;66356;-70
2022/10/15 08:08:04;;;;;;;;;;;;;;;21.03;70.62;97463.14;599452;235;64920;-70
2022/10/15 08:10:32;;;;;;;;;;;;;;;21.03;70.77;97473.83;602262;235;66140;-70
2022/10/15 08:13:01;;;;;;;;;;;;;;;21.02;71.31;97467.68;602072;235;66190;-70
2022/10/15 08:15:31;;;;;;;;;;;;;;;21.02;70.82;97473.02;602306;235;45004;-70
2022/10/15 08:18:01;;;;;;;;;;;;;;;21.02;70.72;97473.02;601998;235;48514;-70
2022/10/15 08:20:33;;;;;;;;;;;;;;;21.02;70.28;97477.56;600193;235;49832;-70
2022/10/15 08:23:01;;;;;;;;;;;;;;;21.02;71.08;97483.71;602295;235;64980;-70
2022/10/15 08:25:33;;;;;;;;;;;;;;;21.03;70.80;97476.50;600626;235;68411;-69
2022/10/15 08:28:04;;;;;;;;;;;;;;;21.01;69.72;97479.44;601548;235;66007;-70
2022/10/15 08:30:32;;;;;;;;;;;;;;;21.02;70.47;97473.02;600457;235;64804;-79
2022/10/15 08:33:01;;;;;;;;;;;;;;;21.01;69.27;97473.30;600949;235;46324;-80
2022/10/15 08:35:35;;;;;;;;;;;;;;;21.03;70.79;97476.50;600101;235;68644;-79
2022/10/15 08:38:10;;;;;;;;;;;;;;;21.02;70.67;97473.02;599482;235;43585;-80
2022/10/15 08:40:41;;;;;;;;;;;;;;;21.02;71.03;97478.37;595107;237;66235;-80
2022/10/15 08:43:10;;;;;;;;;;;;;;;21.02;70.96;97472.23;593330;238;68411;-79
2022/10/15 08:45:43;;;;;;;;;;;;;;;21.02;70.38;97469.55;591896;238;63004;-79
2022/10/15 08:48:13;;;;;;;;;;;;;;;21.02;70.74;97482.91;591476;238;47313;-79
2022/10/15 08:50:44;;;;;;;;;;;;;;;21.02;69.81;97482.91;593840;238;48455;-79
2022/10/15 08:53:16;;;;;;;;;;;;;;;21.02;69.94;97480.24;594034;238;62770;-79
2022/10/15 08:55:47;;;;;;;;;;;;;;;21.01;71.36;97482.12;594266;237;69475;-80
2022/10/15 08:58:30;;;;;;;;;;;;;;;21.01;70.69;97484.79;593936;238;48514;-80
2022/10/15 09:01:08;;;;;;;;;;;;;;;21.01;70.85;97486.66;591993;239;62798;-80
2022/10/15 09:03:51;;;;;;;;;;;;;;;21.01;71.41;97492.80;591936;238;50720;-80
2022/10/15 09:06:25;;;;;;;;;;;;;;;21.01;70.74;97490.12;591925;237;66426;-80
2022/10/15 09:08:56;;;;;;;;;;;;;;;21.00;70.79;97485.03;592136;238;45589;-80
2022/10/15 09:11:37;;;;;;;;;;;;;;;21.01;71.94;97486.66;591951;238;66454;-80
2022/10/15 09:14:09;;;;;;;;;;;;;;;21.00;70.76;97479.69;593402;238;49264;-80
2022/10/15 09:16:42;;;;;;;;;;;;;;;21.00;70.19;97482.36;594203;238;62805;-80
2022/10/15 09:19:16;;;;;;;;;;;;;;;21.00;70.73;97480.48;593948;237;68723;-80
2022/10/15 09:21:45;;;;;;;;;;;;;;;20.99;69.81;97473.55;593074;238;68571;-80
2022/10/15 09:24:15;;;;;;;;;;;;;;;21.00;70.41;97474.34;594408;237;62758;-80
2022/10/15 09:27:00;;;;;;;;;;;;;;;21.00;70.84;97463.66;594844;238;49860;-79
2022/10/15 09:29:51;;;;;;;;;;;;;;;21.00;70.25;97463.66;594476;238;50694;-79
2022/10/15 09:32:32;;;;;;;;;;;;;;;20.99;70.02;97462.86;592004;239;63000;-80
2022/10/15 09:35:22;;;;;;;;;;;;;;;20.99;71.33;97462.86;593284;238;66523;-80
2022/10/15 09:38:13;;;;;;;;;;;;;;;20.98;70.71;97466.61;593521;238;51789;-79
2022/10/15 09:40:43;;;;;;;;;;;;;;;20.99;70.90;97456.72;592924;236;63065;-79
2022/10/15 09:43:19;;;;;;;;;;;;;;;20.97;70.40;97459.64;597237;236;50960;-70
2022/10/15 09:45:53;;;;;;;;;;;;;;;20.97;70.85;97454.29;597700;237;50415;-69
2022/10/15 09:48:23;;;;;;;;;;;;;;;20.98;70.54;97450.58;597666;237;65415;-70
2022/10/15 09:51:01;;;;;;;;;;;;;;;20.96;70.91;97447.35;597651;237;69013;-70
2022/10/15 09:53:38;;;;;;;;;;;;;;;20.97;70.44;97448.95;597646;237;49819;-71
2022/10/15 09:56:12;;;;;;;;;;;;;;;20.97;71.34;97448.95;597444;236;62980;-70
2022/10/15 09:58:41;;;;;;;;;;;;;;;20.96;70.69;97447.35;597589;236;67385;-68
2022/10/15 10:01:10;;;;;;;;;;;;;;;20.98;70.43;97455.09;597468;236;68717;-70
2022/10/15 10:03:39;;;;;;;;;;;;;;;20.96;70.28;97455.37;596395;237;65377;-80
2022/10/15 10:06:11;;;;;;;;;;;;;;;20.97;70.46;97456.96;597202;237;66463;-81
2022/10/15 10:08:51;;;;;;;;;;;;;;;20.97;71.07;97462.30;597528;236;48624;-79
2022/10/15 10:11:20;;;;;;;;;;;;;;;20.97;71.40;97458.84;597653;237;65696;-80
2022/10/15 10:13:54;;;;;;;;;;;;;;;20.97;71.31;97462.30;597638;237;69160;-80
2022/10/15 10:16:22;;;;;;;;;;;;;;;20.96;71.07;97468.73;597641;237;66518;-80
2022/10/15 10:19:03;;;;;;;;;;;;;;;20.97;71.54;97458.84;596884;237;62840;-79
2022/10/15 10:21:32;;;;;;;;;;;;;;;20.96;71.19;97451.89;596355;237;69109;-78
2022/10/15 10:24:20;;;;;;;;;;;;;;;20.97;71.34;97456.16;597491;237;69621;-79
2022/10/15 10:26:47;;;;;;;;;;;;;;;20.95;70.95;97451.09;596262;237;65409;-80
2022/10/15 10:29:22;;;;;;;;;;;;;;;20.96;70.92;97458.04;597348;237;68727;-80
2022/10/15 10:31:51;;;;;;;;;;;;;;;20.95;71.09;97456.44;597627;237;69425;-81
2022/10/15 10:34:31;;;;;;;;;;;;;;;20.96;70.44;97462.58;596732;236;43539;-81
2022/10/15 10:37:00;;;;;;;;;;;;;;;20.96;71.06;97463.38;597220;237;67508;-81
2022/10/15 10:39:29;;;;;;;;;;;;;;;20.95;70.94;97459.11;597563;237;68673;-81
2022/10/15 10:41:59;;;;;;;;;;;;;;;20.95;70.75;97464.45;594706;235;64907;-81
2022/10/15 10:44:31;;;;;;;;;;;;;;;20.95;71.25;97467.12;593655;239;66655;-81
2022/10/15 10:47:15;;;;;;;;;;;;;;;20.94;70.66;97457.48;593793;238;68528;-80
2022/10/15 10:49:46;;;;;;;;;;;;;;;20.95;70.57;97459.11;594885;238;62805;-81
2022/10/15 10:52:21;;;;;;;;;;;;;;;20.95;71.01;97464.45;595407;238;68671;-81
2022/10/15 10:54:51;;;;;;;;;;;;;;;20.95;70.46;97461.78;596086;238;66448;-80
2022/10/15 10:57:22;;;;;;;;;;;;;;;20.95;70.76;97461.78;595151;237;63784;-80
2022/10/15 10:59:54;;;;;;;;;;;;;;;20.95;70.05;97456.44;595757;238;66581;-80
2022/10/15 11:02:21;;;;;;;;;;;;;;;20.94;70.43;97446.80;595974;238;68415;-80
2022/10/15 11:04:49;;;;;;;;;;;;;;;20.93;70.65;97452.42;596113;238;63075;-80
2022/10/15 11:07:21;;;;;;;;;;;;;;;20.94;70.57;97444.12;596130;238;66544;-78
2022/10/15 11:09:52;;;;;;;;;;;;;;;20.94;71.23;97446.80;595737;238;66835;-79
2022/10/15 11:12:36;;;;;;;;;;;;;;;20.95;70.52;97452.94;595229;237;62780;-79
2022/10/15 11:15:22;;;;;;;;;;;;;;;20.94;71.18;97444.12;594829;238;67413;-78
2022/10/15 11:18:03;;;;;;;;;;;;;;;20.93;70.26;97439.86;595137;238;68735;-79
2022/10/15 11:20:41;;;;;;;;;;;;;;;20.93;70.77;97445.20;595931;237;65214;-79
2022/10/15 11:23:10;;;;;;;;;;;;;;;20.94;71.21;97432.64;595471;238;68869;-79
2022/10/15 11:25:45;;;;;;;;;;;;;;;20.93;69.88;97442.53;595386;238;66486;-79
2022/10/15 11:28:31;;;;;;;;;;;;;;;20.93;70.92;97428.38;594987;238;66102;-79
2022/10/15 11:31:01;;;;;;;;;;;;;;;20.93;71.06;97420.36;596090;238;68566;-78
2022/10/15 11:33:42;;;;;;;;;;;;;;;20.92;71.56;97419.53;595845;237;67478;-78
2022/10/15 11:36:17;;;;;;;;;;;;;;;20.92;70.48;97419.53;594581;237;65365;-79
2022/10/15 11:38:49;;;;;;;;;;;;;;;20.93;71.02;97423.03;595708;238;68856;-79
2022/10/15 11:41:27;;;;;;;;;;;;;;;20.91;71.17;97412.59;595971;235;69558;-79
2022/10/15 11:44:13;;;;;;;;;;;;;;;20.92;70.25;97418.73;597401;236;65459;-79
2022/10/15 11:46:43;;;;;;;;;;;;;;;20.92;70.68;97413.39;596591;237;68887;-79
2022/10/15 11:49:18;;;;;;;;;;;;;;;20.92;71.34;97421.41;596661;237;68400;-79
2022/10/15 11:51:53;;;;;;;;;;;;;;;20.92;70.73;97418.73;597018;237;63032;-79
2022/10/15 11:54:25;;;;;;;;;;;;;;;20.92;71.04;97421.41;597714;237;68414;-79
2022/10/15 11:56:53;;;;;;;;;;;;;;;20.91;70.90;97412.59;596999;236;69335;-79
2022/10/15 11:59:32;;;;;;;;;;;;;;;20.92;70.33;97408.05;597489;237;65301;-79
2022/10/15 12:02:01;;;;;;;;;;;;;;;20.91;70.53;97412.59;596484;237;68443;-79
2022/10/15 12:04:30;;;;;;;;;;;;;;;20.91;70.36;97409.13;597732;237;68250;-79
2022/10/15 12:06:59;;;;;;;;;;;;;;;20.92;70.61;97413.39;597682;237;62453;-79
2022/10/15 12:09:29;;;;;;;;;;;;;;;20.91;70.90;97417.94;597459;237;66239;-79
2022/10/15 12:12:01;;;;;;;;;;;;;;;20.91;70.97;97423.28;596310;236;68367;-80
2022/10/15 12:14:32;;;;;;;;;;;;;;;20.91;71.35;97431.30;596566;237;65151;-79
2022/10/15 12:17:08;;;;;;;;;;;;;;;20.91;71.09;97427.82;597164;236;67116;-79
2022/10/15 12:19:36;;;;;;;;;;;;;;;20.92;71.07;97437.44;597035;237;68651;-79
2022/10/15 12:22:10;;;;;;;;;;;;;;;20.91;71.20;97436.64;596129;236;65124;-70
2022/10/15 12:24:47;;;;;;;;;;;;;;;20.91;70.43;97436.64;596106;237;69246;-69
2022/10/15 12:27:18;;;;;;;;;;;;;;;20.91;71.37;97433.16;596968;237;69771;-70
2022/10/15 12:29:47;;;;;;;;;;;;;;;20.91;70.97;97433.16;596385;237;65271;-69
2022/10/15 12:32:31;;;;;;;;;;;;;;;20.91;70.98;97436.64;597472;237;68663;-69
2022/10/15 12:35:00;;;;;;;;;;;;;;;20.90;70.87;97434.20;596211;236;66614;-70
2022/10/15 12:37:29;;;;;;;;;;;;;;;20.91;70.78;97428.62;597188;237;65112;-70
2022/10/15 12:39:58;;;;;;;;;;;;;;;20.90;70.75;97426.20;596433;237;68687;-70
2022/10/15 12:42:30;;;;;;;;;;;;;;;20.90;70.71;97427.02;597149;236;66579;-70
2022/10/15 12:44:59;;;;;;;;;;;;;;;20.90;70.42;97424.35;596399;236;62946;-70
2022/10/15 12:47:44;;;;;;;;;;;;;;;20.91;70.68;97433.16;597430;237;68367;-70
2022/10/15 12:50:21;;;;;;;;;;;;;;;20.89;70.64;97428.06;596473;236;45723;-70
2022/10/15 12:52:58;;;;;;;;;;;;;;;20.90;70.95;97427.02;596975;237;65382;-69
2022/10/15 12:55:27;;;;;;;;;;;;;;;20.89;70.37;97425.39;597662;237;69086;-71
2022/10/15 12:57:57;;;;;;;;;;;;;;;20.90;71.15;97429.70;597652;237;68555;-70
2022/10/15 13:00:26;;;;;;;;;;;;;;;20.90;70.70;97432.37;597446;237;62789;-70
2022/10/15 13:02:54;;;;;;;;;;;;;;;20.90;70.97;97432.37;596421;237;66548;-70
2022/10/15 13:05:32;;;;;;;;;;;;;;;20.90;71.54;97440.37;597631;237;66782;-71
2022/10/15 13:08:01;;;;;;;;;;;;;;;20.89;71.21;97429.94;596402;237;62886;-70